Weather Data

Pearl Creek Farm: 8878 N Farm Road 75, Walnut Grove MO 65770

<== Previous Day (Sunday 02 Apr 2017) | Next Day (Tuesday 04 Apr 2017) ==>

Summary Precipitation Data For Monday 03 April 2017

ElementValueUnits
Precipitation0.01"
Notes(none)
SourcePearl Creek Farm

Summary Temperature Data For Monday 03 April 2017

ElementValueUnits
High Temperature65 oF
Low Temperature48 oF
Average Temperature58 oF
High Humidity97 %
Low Humidity67 %
Average Humidity84 %
SourceSpringfield-Branson National Airport (SGF)

Detail Temperature Data For Monday 03 April 2017

Date / TimeTemp (F)RH (%)Dew Pt (F)Report Date / TimeSource
2017-04-03 04:52:00 56 97 55.0 2017-12-29 17:00:26.17417 Springfield-Branson National Airport (SGF)
2017-04-03 08:52:00 58 93 56.0 2017-12-29 17:00:26.17417 Springfield-Branson National Airport (SGF)
2017-04-03 13:52:00 59 87 55.0 2017-12-29 17:00:26.17417 Springfield-Branson National Airport (SGF)
2017-04-03 00:52:00 58 84 53.0 2017-12-29 17:00:26.17417 Springfield-Branson National Airport (SGF)
2017-04-03 03:52:00 56 93 54.0 2017-12-29 17:00:26.17417 Springfield-Branson National Airport (SGF)
2017-04-03 05:52:00 56 93 54.0 2017-12-29 17:00:26.17417 Springfield-Branson National Airport (SGF)
2017-04-03 06:52:00 56 93 54.0 2017-12-29 17:00:26.17417 Springfield-Branson National Airport (SGF)
2017-04-03 07:52:00 57 93 55.0 2017-12-29 17:00:26.17417 Springfield-Branson National Airport (SGF)
2017-04-03 09:52:00 60 86 56.0 2017-12-29 17:00:26.17417 Springfield-Branson National Airport (SGF)
2017-04-03 10:52:00 65 70 55.0 2017-12-29 17:00:26.17417 Springfield-Branson National Airport (SGF)
2017-04-03 11:52:00 63 70 53.0 2017-12-29 17:00:26.17417 Springfield-Branson National Airport (SGF)
2017-04-03 12:52:00 64 70 54.0 2017-12-29 17:00:26.17417 Springfield-Branson National Airport (SGF)
2017-04-03 14:52:00 59 87 55.0 2017-12-29 17:00:26.17417 Springfield-Branson National Airport (SGF)
2017-04-03 15:52:00 63 73 54.0 2017-12-29 17:00:26.17417 Springfield-Branson National Airport (SGF)
2017-04-03 16:52:00 63 68 52.0 2017-12-29 17:00:26.17417 Springfield-Branson National Airport (SGF)
2017-04-03 17:52:00 62 73 53.0 2017-12-29 17:00:26.17417 Springfield-Branson National Airport (SGF)
2017-04-03 18:52:00 62 67 51.0 2017-12-29 17:00:26.17417 Springfield-Branson National Airport (SGF)
2017-04-03 19:52:00 59 78 52.0 2017-12-29 17:00:26.17417 Springfield-Branson National Airport (SGF)
2017-04-03 20:52:00 57 83 52.0 2017-12-29 17:00:26.17417 Springfield-Branson National Airport (SGF)
2017-04-03 21:52:00 55 87 51.0 2017-12-29 17:00:26.17417 Springfield-Branson National Airport (SGF)
2017-04-03 22:52:00 50 93 48.0 2017-12-29 17:00:26.17417 Springfield-Branson National Airport (SGF)
2017-04-03 01:52:00 57 87 53.0 2017-12-29 17:00:26.17417 Springfield-Branson National Airport (SGF)
2017-04-03 02:52:00 56 93 54.0 2017-12-29 17:00:26.17417 Springfield-Branson National Airport (SGF)
2017-04-03 23:52:00 48 93 46.0 2017-12-29 17:00:26.17417 Springfield-Branson National Airport (SGF)

A total of 24 rows are displayed.